sensor_id;sensor_type;location;lat;lon;timestamp;pressure;altitude;pressure_sealevel;temperature;humidity
64253;BME280;50592;52.958;-7.470;2022-10-31T00:01:36;99368.28;;;11.92;100.00
64253;BME280;50592;52.958;-7.470;2022-10-31T00:04:06;99346.94;;;11.94;100.00
64253;BME280;50592;52.958;-7.470;2022-10-31T00:06:36;99345.72;;;11.96;100.00
64253;BME280;50592;52.958;-7.470;2022-10-31T00:09:09;99347.84;;;12.01;100.00
64253;BME280;50592;52.958;-7.470;2022-10-31T00:11:38;99344.56;;;11.99;100.00
64253;BME280;50592;52.958;-7.470;2022-10-31T00:14:08;99347.84;;;12.01;100.00
64253;BME280;50592;52.958;-7.470;2022-10-31T00:16:35;99353.97;;;12.01;100.00
64253;BME280;50592;52.958;-7.470;2022-10-31T00:19:06;99349.47;;;12.10;100.00
64253;BME280;50592;52.958;-7.470;2022-10-31T00:21:34;99352.53;;;12.14;100.00
64253;BME280;50592;52.958;-7.470;2022-10-31T00:24:05;99342.31;;;12.11;100.00
64253;BME280;50592;52.958;-7.470;2022-10-31T00:26:35;99341.94;;;12.14;100.00
64253;BME280;50592;52.958;-7.470;2022-10-31T00:29:05;99337.31;;;12.16;100.00
64253;BME280;50592;52.958;-7.470;2022-10-31T00:31:31;99332.38;;;12.13;100.00
64253;BME280;50592;52.958;-7.470;2022-10-31T00:34:01;99323.41;;;12.14;100.00
64253;BME280;50592;52.958;-7.470;2022-10-31T00:36:29;99327.94;;;12.05;100.00
64253;BME280;50592;52.958;-7.470;2022-10-31T00:38:59;99322.47;;;12.07;100.00
64253;BME280;50592;52.958;-7.470;2022-10-31T00:41:26;99325.13;;;12.07;100.00
64253;BME280;50592;52.958;-7.470;2022-10-31T00:43:57;99314.84;;;12.12;100.00
64253;BME280;50592;52.958;-7.470;2022-10-31T00:46:27;99325.44;;;12.12;100.00
64253;BME280;50592;52.958;-7.470;2022-10-31T00:48:57;99320.56;;;12.15;100.00
64253;BME280;50592;52.958;-7.470;2022-10-31T00:51:26;99310.81;;;12.16;100.00
64253;BME280;50592;52.958;-7.470;2022-10-31T00:53:56;99319.22;;;12.20;100.00
64253;BME280;50592;52.958;-7.470;2022-10-31T00:56:26;99320.50;;;12.24;100.00
64253;BME280;50592;52.958;-7.470;2022-10-31T00:58:53;99314.81;;;12.27;100.00
64253;BME280;50592;52.958;-7.470;2022-10-31T01:01:23;99325.88;;;12.31;100.00
64253;BME280;50592;52.958;-7.470;2022-10-31T01:03:53;99320.41;;;12.32;100.00
64253;BME280;50592;52.958;-7.470;2022-10-31T01:06:22;99313.25;;;12.33;100.00
64253;BME280;50592;52.958;-7.470;2022-10-31T01:08:52;99320.88;;;12.36;100.00
64253;BME280;50592;52.958;-7.470;2022-10-31T01:11:22;99315.19;;;12.39;100.00
64253;BME280;50592;52.958;-7.470;2022-10-31T01:13:51;99304.97;;;12.36;100.00
64253;BME280;50592;52.958;-7.470;2022-10-31T01:16:24;99307.63;;;12.36;100.00
64253;BME280;50592;52.958;-7.470;2022-10-31T01:18:51;99295.53;;;12.33;100.00
64253;BME280;50592;52.958;-7.470;2022-10-31T01:21:24;99297.03;;;12.36;100.00
64253;BME280;50592;52.958;-7.470;2022-10-31T01:23:53;99291.72;;;12.36;100.00
64253;BME280;50592;52.958;-7.470;2022-10-31T01:26:26;99304.78;;;12.37;100.00
64253;BME280;50592;52.958;-7.470;2022-10-31T01:28:57;99296.66;;;12.39;100.00
64253;BME280;50592;52.958;-7.470;2022-10-31T01:31:30;99304.84;;;12.44;100.00
64253;BME280;50592;52.958;-7.470;2022-10-31T01:34:00;99299.34;;;12.46;100.00
64253;BME280;50592;52.958;-7.470;2022-10-31T01:36:33;99298.38;;;12.47;100.00
64253;BME280;50592;52.958;-7.470;2022-10-31T01:39:11;99292.06;;;12.48;100.00
64253;BME280;50592;52.958;-7.470;2022-10-31T01:41:46;99280.25;;;12.50;100.00
64253;BME280;50592;52.958;-7.470;2022-10-31T01:46:46;99277.78;;;12.49;100.00
64253;BME280;50592;52.958;-7.470;2022-10-31T01:52:47;99261.28;;;12.47;100.00
64253;BME280;50592;52.958;-7.470;2022-10-31T01:55:26;99256.41;;;12.50;100.00
64253;BME280;50592;52.958;-7.470;2022-10-31T01:58:03;99249.66;;;12.48;100.00
64253;BME280;50592;52.958;-7.470;2022-10-31T02:00:34;99245.94;;;12.42;100.00
64253;BME280;50592;52.958;-7.470;2022-10-31T02:03:04;99239.78;;;12.42;100.00
64253;BME280;50592;52.958;-7.470;2022-10-31T02:05:32;99246.91;;;12.41;100.00
64253;BME280;50592;52.958;-7.470;2022-10-31T02:08:15;99248.56;;;12.42;100.00
64253;BME280;50592;52.958;-7.470;2022-10-31T02:10:48;99244.25;;;12.41;100.00
64253;BME280;50592;52.958;-7.470;2022-10-31T02:13:19;99243.97;;;12.51;100.00
64253;BME280;50592;52.958;-7.470;2022-10-31T02:15:56;99225.22;;;12.52;100.00
64253;BME280;50592;52.958;-7.470;2022-10-31T02:18:28;99238.09;;;12.56;100.00
64253;BME280;50592;52.958;-7.470;2022-10-31T02:21:26;99224.66;;;12.57;100.00
64253;BME280;50592;52.958;-7.470;2022-10-31T02:27:27;99200.75;;;12.50;100.00
64253;BME280;50592;52.958;-7.470;2022-10-31T02:30:10;99196.66;;;12.48;100.00
64253;BME280;50592;52.958;-7.470;2022-10-31T02:32:48;99204.50;;;12.41;100.00
64253;BME280;50592;52.958;-7.470;2022-10-31T02:46:59;99202.25;;;12.38;100.00
64253;BME280;50592;52.958;-7.470;2022-10-31T02:49:40;99191.44;;;12.39;100.00
64253;BME280;50592;52.958;-7.470;2022-10-31T02:52:31;99202.44;;;12.36;100.00
64253;BME280;50592;52.958;-7.470;2022-10-31T02:58:11;99185.00;;;12.27;100.00
64253;BME280;50592;52.958;-7.470;2022-10-31T03:04:07;99198.63;;;12.24;100.00
64253;BME280;50592;52.958;-7.470;2022-10-31T03:06:53;99202.47;;;12.21;100.00
64253;BME280;50592;52.958;-7.470;2022-10-31T03:09:29;99209.59;;;12.21;100.00
64253;BME280;50592;52.958;-7.470;2022-10-31T03:17:37;99201.91;;;12.26;100.00
64253;BME280;50592;52.958;-7.470;2022-10-31T03:20:10;99208.03;;;12.26;100.00
64253;BME280;50592;52.958;-7.470;2022-10-31T03:22:42;99204.38;;;12.27;100.00
64253;BME280;50592;52.958;-7.470;2022-10-31T03:25:13;99202.72;;;12.26;100.00
64253;BME280;50592;52.958;-7.470;2022-10-31T03:27:44;99204.38;;;12.27;100.00
64253;BME280;50592;52.958;-7.470;2022-10-31T03:30:15;99201.91;;;12.26;100.00
64253;BME280;50592;52.958;-7.470;2022-10-31T03:32:55;99212.31;;;12.27;100.00
64253;BME280;50592;52.958;-7.470;2022-10-31T03:35:27;99202.34;;;12.30;100.00
64253;BME280;50592;52.958;-7.470;2022-10-31T03:37:59;99202.34;;;12.30;100.00
64253;BME280;50592;52.958;-7.470;2022-10-31T03:40:31;99207.47;;;12.31;100.00
64253;BME280;50592;52.958;-7.470;2022-10-31T03:43:04;99205.63;;;12.32;100.00
64253;BME280;50592;52.958;-7.470;2022-10-31T03:45:44;99198.34;;;12.34;100.00
64253;BME280;50592;52.958;-7.470;2022-10-31T03:48:13;99196.13;;;12.37;100.00
64253;BME280;50592;52.958;-7.470;2022-10-31T03:53:39;99199.66;;;12.45;100.00
64253;BME280;50592;52.958;-7.470;2022-10-31T03:56:26;99194.19;;;12.46;100.00
64253;BME280;50592;52.958;-7.470;2022-10-31T03:59:00;99189.06;;;12.45;100.00
64253;BME280;50592;52.958;-7.470;2022-10-31T04:01:35;99195.00;;;12.47;100.00
64253;BME280;50592;52.958;-7.470;2022-10-31T04:04:03;99186.88;;;12.48;100.00
64253;BME280;50592;52.958;-7.470;2022-10-31T04:06:36;99183.84;;;12.51;100.00
64253;BME280;50592;52.958;-7.470;2022-10-31T04:09:09;99176.50;;;12.53;100.00
64253;BME280;50592;52.958;-7.470;2022-10-31T04:11:40;99170.63;;;12.58;100.00
64253;BME280;50592;52.958;-7.470;2022-10-31T04:14:48;99170.81;;;12.57;100.00
64253;BME280;50592;52.958;-7.470;2022-10-31T04:17:17;99173.94;;;12.60;100.00
64253;BME280;50592;52.958;-7.470;2022-10-31T04:19:48;99174.75;;;12.61;100.00
64253;BME280;50592;52.958;-7.470;2022-10-31T04:22:18;99165.53;;;12.57;100.00
64253;BME280;50592;52.958;-7.470;2022-10-31T04:24:46;99168.25;;;12.63;100.00
64253;BME280;50592;52.958;-7.470;2022-10-31T04:27:14;99161.13;;;12.64;100.00
64253;BME280;50592;52.958;-7.470;2022-10-31T04:29:44;99160.94;;;12.65;100.00
64253;BME280;50592;52.958;-7.470;2022-10-31T04:32:11;99154.63;;;12.67;100.00
64253;BME280;50592;52.958;-7.470;2022-10-31T04:34:41;99150.41;;;12.72;100.00
64253;BME280;50592;52.958;-7.470;2022-10-31T04:37:08;99152.84;;;12.74;100.00
64253;BME280;50592;52.958;-7.470;2022-10-31T04:39:38;99154.28;;;12.76;100.00
64253;BME280;50592;52.958;-7.470;2022-10-31T04:42:31;99150.63;;;12.77;100.00
64253;BME280;50592;52.958;-7.470;2022-10-31T04:45:04;99144.53;;;12.77;100.00
64253;BME280;50592;52.958;-7.470;2022-10-31T04:47:33;99143.50;;;12.78;100.00
64253;BME280;50592;52.958;-7.470;2022-10-31T04:50:03;99128.63;;;12.77;100.00
64253;BME280;50592;52.958;-7.470;2022-10-31T04:52:39;99139.63;;;12.81;100.00
64253;BME280;50592;52.958;-7.470;2022-10-31T04:55:12;99132.06;;;12.77;100.00
64253;BME280;50592;52.958;-7.470;2022-10-31T04:58:02;99132.91;;;12.78;100.00
64253;BME280;50592;52.958;-7.470;2022-10-31T05:00:29;99136.56;;;12.77;100.00
64253;BME280;50592;52.958;-7.470;2022-10-31T05:02:59;99130.25;;;12.78;100.00
64253;BME280;50592;52.958;-7.470;2022-10-31T05:05:30;99137.38;;;12.77;100.00
64253;BME280;50592;52.958;-7.470;2022-10-31T05:08:00;99137.56;;;12.76;100.00
64253;BME280;50592;52.958;-7.470;2022-10-31T05:10:30;99136.56;;;12.77;100.00
64253;BME280;50592;52.958;-7.470;2022-10-31T05:13:02;99134.72;;;12.77;100.00
64253;BME280;50592;52.958;-7.470;2022-10-31T05:16:01;99132.03;;;12.71;100.00
64253;BME280;50592;52.958;-7.470;2022-10-31T05:19:03;99117.75;;;12.72;100.00
64253;BME280;50592;52.958;-7.470;2022-10-31T05:22:00;99116.13;;;12.71;100.00
64253;BME280;50592;52.958;-7.470;2022-10-31T05:24:29;99123.88;;;12.72;100.00
64253;BME280;50592;52.958;-7.470;2022-10-31T05:26:57;99118.97;;;12.69;100.00
64253;BME280;50592;52.958;-7.470;2022-10-31T05:29:26;99128.16;;;12.73;100.00
64253;BME280;50592;52.958;-7.470;2022-10-31T05:31:53;99132.41;;;12.68;100.00
64253;BME280;50592;52.958;-7.470;2022-10-31T05:34:42;99121.22;;;12.72;100.00
64253;BME280;50592;52.958;-7.470;2022-10-31T05:37:28;99129.00;;;12.74;100.00
64253;BME280;50592;52.958;-7.470;2022-10-31T05:39:57;99115.97;;;12.79;100.00
64253;BME280;50592;52.958;-7.470;2022-10-31T05:42:25;99111.69;;;12.78;100.00
64253;BME280;50592;52.958;-7.470;2022-10-31T05:44:52;99116.59;;;12.81;100.00
64253;BME280;50592;52.958;-7.470;2022-10-31T05:47:31;99126.97;;;12.76;100.00
64253;BME280;50592;52.958;-7.470;2022-10-31T05:50:19;99115.34;;;12.77;100.00
64253;BME280;50592;52.958;-7.470;2022-10-31T05:53:00;99114.97;;;12.80;100.00
64253;BME280;50592;52.958;-7.470;2022-10-31T05:55:35;99119.25;;;12.81;100.00
64253;BME280;50592;52.958;-7.470;2022-10-31T05:58:07;99099.25;;;12.78;100.00
64253;BME280;50592;52.958;-7.470;2022-10-31T06:00:38;99109.28;;;12.83;100.00
64253;BME280;50592;52.958;-7.470;2022-10-31T06:03:09;99113.56;;;12.84;100.00
64253;BME280;50592;52.958;-7.470;2022-10-31T06:05:59;99108.91;;;12.86;100.00
64253;BME280;50592;52.958;-7.470;2022-10-31T06:08:32;99092.34;;;12.84;100.00
64253;BME280;50592;52.958;-7.470;2022-10-31T06:11:06;99084.84;;;12.88;100.00
64253;BME280;50592;52.958;-7.470;2022-10-31T06:13:51;99093.78;;;12.87;100.00
64253;BME280;50592;52.958;-7.470;2022-10-31T06:16:30;99100.38;;;12.91;100.00
64253;BME280;50592;52.958;-7.470;2022-10-31T06:19:06;99096.44;;;12.87;100.00
64253;BME280;50592;52.958;-7.470;2022-10-31T06:21:36;99092.16;;;12.86;100.00
64253;BME280;50592;52.958;-7.470;2022-10-31T06:24:06;99091.13;;;12.87;100.00
64253;BME280;50592;52.958;-7.470;2022-10-31T06:26:59;99105.03;;;12.89;100.00
64253;BME280;50592;52.958;-7.470;2022-10-31T06:29:25;99086.47;;;12.89;100.00
64253;BME280;50592;52.958;-7.470;2022-10-31T06:32:12;99108.75;;;12.95;100.00
64253;BME280;50592;52.958;-7.470;2022-10-31T06:34:42;99114.25;;;12.93;100.00
64253;BME280;50592;52.958;-7.470;2022-10-31T06:37:12;99114.88;;;12.95;100.00
64253;BME280;50592;52.958;-7.470;2022-10-31T06:39:45;99108.75;;;12.95;100.00
64253;BME280;50592;52.958;-7.470;2022-10-31T06:42:17;99110.38;;;12.96;100.00
64253;BME280;50592;52.958;-7.470;2022-10-31T06:44:44;99124.28;;;12.98;100.00
64253;BME280;50592;52.958;-7.470;2022-10-31T06:47:51;99124.91;;;13.00;100.00
64253;BME280;50592;52.958;-7.470;2022-10-31T06:50:25;99121.06;;;13.02;100.00
64253;BME280;50592;52.958;-7.470;2022-10-31T06:52:58;99132.06;;;13.06;100.00
64253;BME280;50592;52.958;-7.470;2022-10-31T06:55:28;99121.28;;;13.08;100.00
64253;BME280;50592;52.958;-7.470;2022-10-31T06:57:59;99115.16;;;13.07;100.00
64253;BME280;50592;52.958;-7.470;2022-10-31T07:00:28;99126.34;;;13.02;100.00
64253;BME280;50592;52.958;-7.470;2022-10-31T07:03:12;99128.19;;;13.02;100.00
64253;BME280;50592;52.958;-7.470;2022-10-31T07:05:39;99118.78;;;12.99;100.00
64253;BME280;50592;52.958;-7.470;2022-10-31T07:08:11;99119.97;;;12.97;100.00
64253;BME280;50592;52.958;-7.470;2022-10-31T07:10:40;99116.94;;;13.00;100.00
64253;BME280;50592;52.958;-7.470;2022-10-31T07:13:13;99101.03;;;13.00;100.00
64253;BME280;50592;52.958;-7.470;2022-10-31T07:15:48;99112.84;;;12.97;100.00
64253;BME280;50592;52.958;-7.470;2022-10-31T07:18:19;99108.56;;;12.96;100.00
64253;BME280;50592;52.958;-7.470;2022-10-31T07:20:47;99102.25;;;12.97;100.00
64253;BME280;50592;52.958;-7.470;2022-10-31T07:23:19;99095.13;;;12.98;100.00
64253;BME280;50592;52.958;-7.470;2022-10-31T07:25:58;99093.44;;;12.97;100.00
64253;BME280;50592;52.958;-7.470;2022-10-31T07:28:39;99108.56;;;12.96;100.00
64253;BME280;50592;52.958;-7.470;2022-10-31T07:31:06;99106.31;;;12.93;100.00
64253;BME280;50592;52.958;-7.470;2022-10-31T07:33:38;99107.09;;;12.94;100.00
64253;BME280;50592;52.958;-7.470;2022-10-31T07:36:40;99109.94;;;12.92;100.00
64253;BME280;50592;52.958;-7.470;2022-10-31T07:39:10;99110.38;;;12.96;100.00
64253;BME280;50592;52.958;-7.470;2022-10-31T07:41:40;99110.19;;;12.97;100.00
64253;BME280;50592;52.958;-7.470;2022-10-31T07:44:10;99110.19;;;12.97;100.00
64253;BME280;50592;52.958;-7.470;2022-10-31T07:47:15;99119.38;;;12.95;100.00
64253;BME280;50592;52.958;-7.470;2022-10-31T07:50:04;99121.84;;;12.96;100.00
64253;BME280;50592;52.958;-7.470;2022-10-31T07:53:12;99117.53;;;12.95;100.00
64253;BME280;50592;52.958;-7.470;2022-10-31T07:55:51;99128.50;;;12.92;100.00
64253;BME280;50592;52.958;-7.470;2022-10-31T07:58:18;99125.03;;;12.92;100.00
64253;BME280;50592;52.958;-7.470;2022-10-31T08:00:48;99127.88;;;12.90;100.00
64253;BME280;50592;52.958;-7.470;2022-10-31T08:03:25;99127.06;;;12.89;100.00
64253;BME280;50592;52.958;-7.470;2022-10-31T08:06:15;99120.75;;;12.90;100.00
64253;BME280;50592;52.958;-7.470;2022-10-31T08:09:07;99126.13;;;12.97;100.00
64253;BME280;50592;52.958;-7.470;2022-10-31T08:11:34;99126.94;;;12.98;100.00
64253;BME280;50592;52.958;-7.470;2022-10-31T08:14:03;99138.16;;;13.00;100.00
64253;BME280;50592;52.958;-7.470;2022-10-31T08:16:30;99112.28;;;13.02;100.00
64253;BME280;50592;52.958;-7.470;2022-10-31T08:19:02;99128.63;;;13.06;100.00
64253;BME280;50592;52.958;-7.470;2022-10-31T08:21:35;99125.97;;;13.06;100.00
64253;BME280;50592;52.958;-7.470;2022-10-31T08:24:06;99133.75;;;13.07;100.00
64253;BME280;50592;52.958;-7.470;2022-10-31T08:26:36;99123.72;;;13.09;100.00
64253;BME280;50592;52.958;-7.470;2022-10-31T08:29:09;99134.16;;;13.11;100.00
64253;BME280;50592;52.958;-7.470;2022-10-31T08:31:37;99147.41;;;13.11;100.00
64253;BME280;50592;52.958;-7.470;2022-10-31T08:34:25;99146.03;;;13.15;100.00
64253;BME280;50592;52.958;-7.470;2022-10-31T08:37:10;99145.41;;;13.13;100.00
64253;BME280;50592;52.958;-7.470;2022-10-31T08:39:46;99154.97;;;13.14;100.00
64253;BME280;50592;52.958;-7.470;2022-10-31T08:42:13;99151.34;;;13.15;100.00
64253;BME280;50592;52.958;-7.470;2022-10-31T08:44:42;99156.25;;;13.18;100.00
64253;BME280;50592;52.958;-7.470;2022-10-31T08:47:09;99151.94;;;13.17;100.00
64253;BME280;50592;52.958;-7.470;2022-10-31T08:49:39;99153.78;;;13.17;100.00
64253;BME280;50592;52.958;-7.470;2022-10-31T08:52:05;99158.66;;;13.13;100.00
64253;BME280;50592;52.958;-7.470;2022-10-31T08:54:39;99162.34;;;13.12;100.00
64253;BME280;50592;52.958;-7.470;2022-10-31T08:57:26;99163.97;;;13.13;100.00
64253;BME280;50592;52.958;-7.470;2022-10-31T08:59:56;99149.09;;;13.19;100.00
64253;BME280;50592;52.958;-7.470;2022-10-31T09:02:46;99165.84;;;13.19;100.00
64253;BME280;50592;52.958;-7.470;2022-10-31T09:05:13;99160.09;;;13.15;100.00
64253;BME280;50592;52.958;-7.470;2022-10-31T09:07:43;99162.19;;;13.20;100.00
64253;BME280;50592;52.958;-7.470;2022-10-31T09:10:10;99160.53;;;13.19;100.00
64253;BME280;50592;52.958;-7.470;2022-10-31T09:12:39;99164.03;;;13.20;100.00
64253;BME280;50592;52.958;-7.470;2022-10-31T09:15:08;99165.66;;;13.21;100.00
64253;BME280;50592;52.958;-7.470;2022-10-31T09:17:52;99168.75;;;13.24;100.00
64253;BME280;50592;52.958;-7.470;2022-10-31T09:20:31;99167.13;;;13.23;100.00
64253;BME280;50592;52.958;-7.470;2022-10-31T09:23:13;99163.63;;;13.23;100.00
64253;BME280;50592;52.958;-7.470;2022-10-31T09:25:44;99168.56;;;13.26;100.00
64253;BME280;50592;52.958;-7.470;2022-10-31T09:28:33;99172.41;;;13.23;100.00
64253;BME280;50592;52.958;-7.470;2022-10-31T09:31:05;99175.06;;;13.23;100.00
64253;BME280;50592;52.958;-7.470;2022-10-31T09:34:04;99190.59;;;13.26;100.00
64253;BME280;50592;52.958;-7.470;2022-10-31T09:36:38;99190.41;;;13.28;100.00
64253;BME280;50592;52.958;-7.470;2022-10-31T09:39:15;99177.53;;;13.25;100.00
64253;BME280;50592;52.958;-7.470;2022-10-31T09:47:53;99189.06;;;13.10;100.00
64253;BME280;50592;52.958;-7.470;2022-10-31T09:50:46;99185.31;;;13.05;100.00
64253;BME280;50592;52.958;-7.470;2022-10-31T09:54:06;99178.13;;;12.98;100.00
64253;BME280;50592;52.958;-7.470;2022-10-31T09:56:38;99183.88;;;13.02;100.00
64253;BME280;50592;52.958;-7.470;2022-10-31T09:59:17;99189.38;;;13.00;100.00
64253;BME280;50592;52.958;-7.470;2022-10-31T10:01:56;99193.44;;;12.96;100.00
64253;BME280;50592;52.958;-7.470;2022-10-31T10:04:43;99197.91;;;12.96;100.00
64253;BME280;50592;52.958;-7.470;2022-10-31T10:07:44;99186.03;;;12.92;100.00
64253;BME280;50592;52.958;-7.470;2022-10-31T10:10:43;99191.78;;;12.95;100.00
64253;BME280;50592;52.958;-7.470;2022-10-31T10:21:46;99167.72;;;12.97;100.00
64253;BME280;50592;52.958;-7.470;2022-10-31T10:29:53;99168.16;;;13.00;100.00
64253;BME280;50592;52.958;-7.470;2022-10-31T10:32:29;99172.06;;;13.05;100.00
64253;BME280;50592;52.958;-7.470;2022-10-31T10:37:57;99193.09;;;13.06;100.00
64253;BME280;50592;52.958;-7.470;2022-10-31T10:40:29;99187.97;;;13.05;100.00
64253;BME280;50592;52.958;-7.470;2022-10-31T10:43:30;99191.66;;;13.03;100.00
64253;BME280;50592;52.958;-7.470;2022-10-31T10:49:51;99182.56;;;12.91;100.00
64253;BME280;50592;52.958;-7.470;2022-10-31T11:00:41;99209.47;;;12.88;100.00
64253;BME280;50592;52.958;-7.470;2022-10-31T11:03:09;99209.59;;;12.80;100.00
64253;BME280;50592;52.958;-7.470;2022-10-31T11:05:57;99202.66;;;12.78;100.00
64253;BME280;50592;52.958;-7.470;2022-10-31T11:08:30;99202.03;;;12.76;100.00
64253;BME280;50592;52.958;-7.470;2022-10-31T11:11:02;99187.13;;;12.75;100.00
64253;BME280;50592;52.958;-7.470;2022-10-31T11:13:34;99179.56;;;12.72;100.00
64253;BME280;50592;52.958;-7.470;2022-10-31T11:18:41;99170.13;;;12.70;100.00
64253;BME280;50592;52.958;-7.470;2022-10-31T11:21:24;99164.41;;;12.66;100.00
64253;BME280;50592;52.958;-7.470;2022-10-31T11:26:42;99169.53;;;12.68;100.00
64253;BME280;50592;52.958;-7.470;2022-10-31T11:29:22;99172.38;;;12.66;100.00
64253;BME280;50592;52.958;-7.470;2022-10-31T11:31:56;99171.34;;;12.67;100.00
64253;BME280;50592;52.958;-7.470;2022-10-31T11:34:34;99165.03;;;12.68;100.00
64253;BME280;50592;52.958;-7.470;2022-10-31T11:37:18;99158.09;;;12.67;100.00
64253;BME280;50592;52.958;-7.470;2022-10-31T11:42:57;99136.19;;;12.58;100.00
64253;BME280;50592;52.958;-7.470;2022-10-31T11:45:40;99129.63;;;12.54;100.00
64253;BME280;50592;52.958;-7.470;2022-10-31T11:48:23;99138.59;;;12.53;100.00
64253;BME280;50592;52.958;-7.470;2022-10-31T11:50:55;99139.97;;;12.49;100.00
64253;BME280;50592;52.958;-7.470;2022-10-31T11:53:32;99138.28;;;12.41;100.00
64253;BME280;50592;52.958;-7.470;2022-10-31T11:56:13;99142.81;;;12.47;100.00
64253;BME280;50592;52.958;-7.470;2022-10-31T11:58:58;99137.28;;;12.42;100.00
64253;BME280;50592;52.958;-7.470;2022-10-31T12:01:45;99148.88;;;12.41;100.00
64253;BME280;50592;52.958;-7.470;2022-10-31T12:04:16;99140.72;;;12.43;100.00
64253;BME280;50592;52.958;-7.470;2022-10-31T12:06:47;99140.31;;;12.39;100.00
64253;BME280;50592;52.958;-7.470;2022-10-31T12:09:52;99137.28;;;12.42;100.00
64253;BME280;50592;52.958;-7.470;2022-10-31T12:12:35;99134.00;;;12.40;100.00
64253;BME280;50592;52.958;-7.470;2022-10-31T12:15:33;99131.72;;;12.37;100.00
64253;BME280;50592;52.958;-7.470;2022-10-31T12:21:37;99119.50;;;12.36;100.00
64253;BME280;50592;52.958;-7.470;2022-10-31T12:27:14;99109.13;;;12.41;100.00
64253;BME280;50592;52.958;-7.470;2022-10-31T12:32:38;99113.66;;;12.47;100.00
64253;BME280;50592;52.958;-7.470;2022-10-31T12:53:00;99094.50;;;12.45;100.00
64253;BME280;50592;52.958;-7.470;2022-10-31T12:58:26;99085.16;;;12.49;100.00
64253;BME280;50592;52.958;-7.470;2022-10-31T13:04:15;99088.81;;;12.48;100.00
64253;BME280;50592;52.958;-7.470;2022-10-31T13:06:59;99086.56;;;12.45;100.00
64253;BME280;50592;52.958;-7.470;2022-10-31T13:12:54;99083.94;;;12.52;100.00
64253;BME280;50592;52.958;-7.470;2022-10-31T13:15:29;99077.38;;;12.48;100.00
64253;BME280;50592;52.958;-7.470;2022-10-31T13:18:06;99072.72;;;12.50;100.00
64253;BME280;50592;52.958;-7.470;2022-10-31T13:20:45;99073.13;;;12.53;100.00
64253;BME280;50592;52.958;-7.470;2022-10-31T13:23:34;99060.53;;;12.56;100.00
64253;BME280;50592;52.958;-7.470;2022-10-31T13:26:20;99045.06;;;12.59;100.00
64253;BME280;50592;52.958;-7.470;2022-10-31T13:29:12;99050.78;;;12.63;100.00
64253;BME280;50592;52.958;-7.470;2022-10-31T13:31:46;99060.59;;;12.62;100.00
64253;BME280;50592;52.958;-7.470;2022-10-31T14:09:23;99014.63;;;12.48;100.00
64253;BME280;50592;52.958;-7.470;2022-10-31T14:11:55;99023.63;;;12.54;100.00
64253;BME280;50592;52.958;-7.470;2022-10-31T14:14:29;99014.63;;;12.55;100.00
64253;BME280;50592;52.958;-7.470;2022-10-31T14:17:00;99029.75;;;12.55;100.00
64253;BME280;50592;52.958;-7.470;2022-10-31T14:19:30;99004.88;;;12.56;100.00
64253;BME280;50592;52.958;-7.470;2022-10-31T14:21:57;99024.19;;;12.49;100.00
64253;BME280;50592;52.958;-7.470;2022-10-31T14:26:57;99024.22;;;12.27;100.00
64253;BME280;50592;52.958;-7.470;2022-10-31T14:29:31;99024.81;;;12.23;100.00
64253;BME280;50592;52.958;-7.470;2022-10-31T14:35:25;99013.13;;;12.17;100.00
64253;BME280;50592;52.958;-7.470;2022-10-31T14:45:08;99015.84;;;12.24;100.00
64253;BME280;50592;52.958;-7.470;2022-10-31T14:47:36;99021.13;;;12.24;100.00
64253;BME280;50592;52.958;-7.470;2022-10-31T14:50:21;99004.78;;;12.20;100.00
64253;BME280;50592;52.958;-7.470;2022-10-31T14:52:56;99013.19;;;12.24;100.00
64253;BME280;50592;52.958;-7.470;2022-10-31T14:55:30;99009.72;;;12.23;100.00
64253;BME280;50592;52.958;-7.470;2022-10-31T14:58:28;99000.06;;;12.15;100.00
64253;BME280;50592;52.958;-7.470;2022-10-31T15:01:04;98996.81;;;12.13;100.00
64253;BME280;50592;52.958;-7.470;2022-10-31T15:03:39;98979.44;;;12.11;100.00
64253;BME280;50592;52.958;-7.470;2022-10-31T15:06:24;98983.47;;;12.07;100.00
64253;BME280;50592;52.958;-7.470;2022-10-31T15:08:55;98981.81;;;12.06;100.00
64253;BME280;50592;52.958;-7.470;2022-10-31T15:11:37;98978.75;;;12.02;100.00
64253;BME280;50592;52.958;-7.470;2022-10-31T15:14:32;98973.88;;;12.06;100.00
64253;BME280;50592;52.958;-7.470;2022-10-31T15:17:03;98978.94;;;12.00;100.00
64253;BME280;50592;52.958;-7.470;2022-10-31T15:19:34;98977.34;;;12.06;100.00
64253;BME280;50592;52.958;-7.470;2022-10-31T15:22:04;98973.84;;;11.99;100.00
64253;BME280;50592;52.958;-7.470;2022-10-31T15:24:41;98970.16;;;12.00;100.00
64253;BME280;50592;52.958;-7.470;2022-10-31T15:27:21;98973.38;;;11.95;100.00
64253;BME280;50592;52.958;-7.470;2022-10-31T15:30:27;98967.22;;;11.88;100.00
64253;BME280;50592;52.958;-7.470;2022-10-31T15:32:58;98966.97;;;11.83;100.00
64253;BME280;50592;52.958;-7.470;2022-10-31T15:35:37;98954.75;;;11.82;100.00
64253;BME280;50592;52.958;-7.470;2022-10-31T15:38:29;98954.19;;;11.86;100.00
64253;BME280;50592;52.958;-7.470;2022-10-31T15:41:19;98943.50;;;11.79;100.00
64253;BME280;50592;52.958;-7.470;2022-10-31T15:44:03;98924.16;;;11.79;100.00
64253;BME280;50592;52.958;-7.470;2022-10-31T15:46:43;98924.22;;;11.86;100.00
64253;BME280;50592;52.958;-7.470;2022-10-31T15:49:32;98915.06;;;11.88;100.00
64253;BME280;50592;52.958;-7.470;2022-10-31T15:57:44;98905.13;;;11.90;100.00
64253;BME280;50592;52.958;-7.470;2022-10-31T16:00:44;98910.41;;;11.90;100.00
64253;BME280;50592;52.958;-7.470;2022-10-31T16:37:40;98914.81;;;11.18;100.00
64253;BME280;50592;52.958;-7.470;2022-10-31T16:40:18;98901.13;;;11.14;100.00
64253;BME280;50592;52.958;-7.470;2022-10-31T16:42:45;98902.16;;;11.13;100.00
64253;BME280;50592;52.958;-7.470;2022-10-31T16:48:19;98903.31;;;11.10;100.00
64253;BME280;50592;52.958;-7.470;2022-10-31T16:50:50;98899.22;;;11.08;100.00
64253;BME280;50592;52.958;-7.470;2022-10-31T16:53:22;98889.84;;;11.05;100.00